createdAt,value
2017-04-17T00:00:34.435Z,89.70
2017-04-17T00:01:32.906Z,89.70
2017-04-17T00:02:31.393Z,89.80
2017-04-17T00:03:29.788Z,89.40
2017-04-17T00:04:28.244Z,89.30
2017-04-17T00:05:26.702Z,90.00
2017-04-17T00:06:25.841Z,88.80
2017-04-17T00:07:24.286Z,88.80
2017-04-17T00:08:22.733Z,89.10
2017-04-17T00:09:21.880Z,88.90
2017-04-17T00:10:20.347Z,89.10
2017-04-17T00:11:18.774Z,89.10
2017-04-17T00:12:17.008Z,88.90
2017-04-17T00:13:15.446Z,89.20
2017-04-17T00:14:13.851Z,88.70
2017-04-17T00:15:12.317Z,89.10
2017-04-17T00:16:10.756Z,88.90
2017-04-17T00:17:09.217Z,89.10
2017-04-17T00:18:07.603Z,88.80
2017-04-17T00:19:06.015Z,88.70
2017-04-17T00:20:04.456Z,88.80
2017-04-17T00:21:02.919Z,89.50
2017-04-17T00:23:00.274Z,89.00
2017-04-17T00:23:58.750Z,89.00
2017-04-17T00:24:57.231Z,88.90
2017-04-17T00:25:55.725Z,89.10
2017-04-17T00:26:54.202Z,89.20
2017-04-17T00:27:52.604Z,89.30
2017-04-17T00:28:51.014Z,89.10
2017-04-17T00:29:50.177Z,88.90
2017-04-17T00:30:48.600Z,88.50
2017-04-17T00:31:47.077Z,88.70
2017-04-17T00:32:45.493Z,88.90
2017-04-17T00:33:43.913Z,89.20
2017-04-17T00:34:42.343Z,89.10
2017-04-17T00:35:40.740Z,89.10
2017-04-17T00:36:39.163Z,89.00
2017-04-17T00:37:37.583Z,88.80
2017-04-17T00:38:36.041Z,89.80
2017-04-17T00:39:35.209Z,89.00
2017-04-17T00:40:33.642Z,89.10
2017-04-17T00:41:32.036Z,89.00
2017-04-17T00:42:30.774Z,89.10
2017-04-17T00:43:29.184Z,88.90
2017-04-17T00:44:27.643Z,88.80
2017-04-17T00:45:26.041Z,88.90
2017-04-17T00:46:24.452Z,88.90
2017-04-17T00:47:22.877Z,88.90
2017-04-17T00:48:21.287Z,88.90
2017-04-17T00:49:19.758Z,89.00
2017-04-17T00:50:18.246Z,89.20
2017-04-17T00:51:16.634Z,89.20
2017-04-17T00:52:15.048Z,89.30
2017-04-17T00:53:14.203Z,89.50
2017-04-17T00:54:12.604Z,89.50
2017-04-17T00:55:11.027Z,89.70
2017-04-17T00:56:10.266Z,89.20
2017-04-17T00:57:08.674Z,89.70
2017-04-17T00:58:07.081Z,89.30
2017-04-17T00:59:05.878Z,89.40
2017-04-17T01:00:04.455Z,89.60
2017-04-17T01:01:02.959Z,89.50
2017-04-17T01:02:01.475Z,89.30
2017-04-17T01:03:00.286Z,89.40
2017-04-17T01:03:58.752Z,89.40
2017-04-17T01:04:57.239Z,89.20
2017-04-17T01:05:55.677Z,89.20
2017-04-17T01:06:54.866Z,89.20
2017-04-17T01:07:53.292Z,89.50
2017-04-17T01:08:52.525Z,89.50
2017-04-17T01:09:55.013Z,89.20
2017-04-17T01:10:53.455Z,89.20
2017-04-17T01:11:52.611Z,89.40
2017-04-17T01:12:51.000Z,89.30
2017-04-17T01:13:49.407Z,89.50
2017-04-17T01:14:47.832Z,89.40
2017-04-17T01:15:46.318Z,89.40
2017-04-17T01:16:44.810Z,89.40
2017-04-17T01:17:43.228Z,89.80
2017-04-17T01:18:41.636Z,89.70
2017-04-17T01:19:40.063Z,89.80
2017-04-17T01:20:38.462Z,89.80
2017-04-17T01:21:36.968Z,89.80
2017-04-17T01:22:36.169Z,89.90
2017-04-17T01:23:34.579Z,89.90
2017-04-17T01:24:33.056Z,89.80
2017-04-17T01:25:31.500Z,89.50
2017-04-17T01:26:29.972Z,89.20
2017-04-17T01:27:28.783Z,89.20
2017-04-17T01:28:27.953Z,89.20
2017-04-17T01:29:26.432Z,89.20
2017-04-17T01:30:24.893Z,89.40
2017-04-17T01:31:23.454Z,89.50
2017-04-17T01:32:21.886Z,89.20
2017-04-17T01:33:20.428Z,89.30
2017-04-17T01:34:19.577Z,89.20
2017-04-17T01:35:18.051Z,89.10
2017-04-17T01:36:16.476Z,88.90
2017-04-17T01:37:14.885Z,89.20
2017-04-17T01:38:13.370Z,89.20
2017-04-17T01:39:14.710Z,89.10
2017-04-17T01:40:14.527Z,88.90
2017-04-17T01:41:12.961Z,88.80
2017-04-17T01:42:11.335Z,89.00
2017-04-17T01:43:09.762Z,88.50
2017-04-17T01:44:08.180Z,88.40
2017-04-17T01:45:06.643Z,88.60
2017-04-17T01:46:05.070Z,88.50
2017-04-17T01:47:03.517Z,88.40
2017-04-17T01:48:02.001Z,88.70
2017-04-17T01:49:00.416Z,88.70
2017-04-17T01:49:58.850Z,89.10
2017-04-17T01:50:57.268Z,89.20
2017-04-17T01:51:56.014Z,89.60
2017-04-17T01:52:54.542Z,89.20
2017-04-17T01:53:52.926Z,89.20
2017-04-17T01:54:52.091Z,89.40
2017-04-17T01:55:50.514Z,89.40
2017-04-17T01:56:48.936Z,89.10
2017-04-17T01:57:47.327Z,89.00
2017-04-17T01:58:46.552Z,89.10
2017-04-17T01:59:45.001Z,88.90
2017-04-17T02:00:43.423Z,89.10
2017-04-17T02:01:41.901Z,89.20
2017-04-17T02:02:40.382Z,89.20
2017-04-17T02:03:38.825Z,89.10
2017-04-17T02:04:37.323Z,89.10
2017-04-17T02:05:36.485Z,88.90
2017-04-17T02:06:34.995Z,89.10
2017-04-17T02:07:33.465Z,89.10
2017-04-17T02:08:33.121Z,89.00
2017-04-17T02:09:31.590Z,89.10
2017-04-17T02:10:30.099Z,88.90
2017-04-17T02:11:28.515Z,88.90
2017-04-17T02:12:26.950Z,89.00
2017-04-17T02:17:38.884Z,88.90
2017-04-17T02:18:37.313Z,89.10
2017-04-17T02:19:35.746Z,89.20
2017-04-17T02:20:34.509Z,89.50
2017-04-17T02:21:32.920Z,89.40
2017-04-17T02:22:31.373Z,89.40
2017-04-17T02:23:30.094Z,89.40
2017-04-17T02:24:28.873Z,89.60
2017-04-17T02:25:27.293Z,89.40
2017-04-17T02:26:25.865Z,89.40
2017-04-17T02:27:24.385Z,89.30
2017-04-17T02:28:22.799Z,89.40
2017-04-17T02:29:21.300Z,89.30
2017-04-17T02:30:19.773Z,89.30
2017-04-17T02:31:18.380Z,89.20
2017-04-17T02:32:16.827Z,89.40
2017-04-17T02:33:16.043Z,89.30
2017-04-17T02:34:14.523Z,89.10
2017-04-17T02:35:13.327Z,88.80
2017-04-17T02:36:11.764Z,88.90
2017-04-17T02:37:10.316Z,89.60
2017-04-17T02:38:09.522Z,88.90
2017-04-17T02:39:08.097Z,88.90
2017-04-17T02:40:06.995Z,90.00
2017-04-17T02:41:05.579Z,89.30
2017-04-17T02:42:04.138Z,89.10
2017-04-17T02:43:02.555Z,88.80
2017-04-17T02:44:01.037Z,88.80
2017-04-17T02:45:00.188Z,88.70
2017-04-17T02:45:58.624Z,88.70
2017-04-17T02:46:57.313Z,88.30
2017-04-17T02:47:55.752Z,88.10
2017-04-17T02:48:54.164Z,88.10
2017-04-17T02:49:53.438Z,88.20
2017-04-17T02:50:52.260Z,88.30
2017-04-17T02:51:50.730Z,88.60
2017-04-17T02:52:49.228Z,88.50
2017-04-17T02:53:47.659Z,88.40
2017-04-17T02:54:46.092Z,88.40
2017-04-17T02:55:44.533Z,88.30
2017-04-17T02:56:42.961Z,88.20
2017-04-17T02:57:41.379Z,88.30
2017-04-17T02:58:39.841Z,88.50
2017-04-17T02:59:39.060Z,88.50
2017-04-17T03:00:37.462Z,88.60
2017-04-17T03:01:35.936Z,88.60
2017-04-17T03:02:34.392Z,88.70
2017-04-17T03:03:33.163Z,88.60
2017-04-17T03:04:31.578Z,88.50
2017-04-17T03:05:30.062Z,88.50
2017-04-17T03:06:29.184Z,88.50
2017-04-17T03:07:27.598Z,88.60
2017-04-17T03:08:26.007Z,88.90
2017-04-17T03:09:24.496Z,88.70
2017-04-17T03:10:22.940Z,88.80
2017-04-17T03:11:21.390Z,88.60
2017-04-17T03:12:19.803Z,88.90
2017-04-17T03:13:18.235Z,88.90
2017-04-17T03:14:16.639Z,89.10
2017-04-17T03:15:15.496Z,89.00
2017-04-17T03:16:13.871Z,89.20
2017-04-17T03:17:12.321Z,89.00
2017-04-17T03:18:10.729Z,88.90
2017-04-17T03:19:09.153Z,88.80
2017-04-17T03:20:08.314Z,89.10
2017-04-17T03:21:06.708Z,89.10
2017-04-17T03:22:05.833Z,88.90
2017-04-17T03:23:04.281Z,88.70
2017-04-17T03:24:02.724Z,88.80
2017-04-17T03:25:01.106Z,88.50
2017-04-17T03:25:59.540Z,88.50
2017-04-17T03:26:57.942Z,88.50
2017-04-17T03:27:56.353Z,88.40
2017-04-17T03:28:54.816Z,88.10
2017-04-17T03:29:53.210Z,88.10
2017-04-17T03:30:52.427Z,88.60
2017-04-17T03:31:50.837Z,88.70
2017-04-17T03:32:49.238Z,88.50
2017-04-17T03:33:47.617Z,88.70
2017-04-17T03:34:46.776Z,88.70
2017-04-17T03:35:45.219Z,88.60
2017-04-17T03:36:43.923Z,88.90
2017-04-17T03:37:42.337Z,88.60
2017-04-17T03:38:40.753Z,88.50
2017-04-17T03:39:39.161Z,88.60
2017-04-17T03:40:37.596Z,89.50
2017-04-17T03:41:36.085Z,88.80
2017-04-17T03:42:35.831Z,88.60
2017-04-17T03:43:34.256Z,88.30
2017-04-17T03:44:33.013Z,88.20
2017-04-17T03:45:31.464Z,88.40
2017-04-17T03:46:30.235Z,88.80
2017-04-17T03:47:28.627Z,88.50
2017-04-17T03:48:27.010Z,89.40
2017-04-17T03:49:25.441Z,88.80
2017-04-17T03:50:23.856Z,88.60
2017-04-17T03:51:22.250Z,88.80
2017-04-17T03:52:20.704Z,88.70
2017-04-17T03:53:19.146Z,88.80
2017-04-17T03:54:17.566Z,88.70
2017-04-17T03:55:15.976Z,88.70
2017-04-17T03:56:14.380Z,88.40
2017-04-17T03:57:12.778Z,88.70
2017-04-17T03:58:11.239Z,88.80
2017-04-17T03:59:09.652Z,88.70
2017-04-17T04:00:08.156Z,88.40
2017-04-17T04:01:06.536Z,88.40
2017-04-17T04:02:04.960Z,88.40
2017-04-17T04:03:03.402Z,88.20
2017-04-17T04:04:01.839Z,88.30
2017-04-17T04:05:00.263Z,88.30
2017-04-17T04:05:58.275Z,88.30
2017-04-17T04:06:56.756Z,88.20
2017-04-17T04:07:55.532Z,88.00
2017-04-17T04:08:53.955Z,88.30
2017-04-17T04:09:52.362Z,88.10
2017-04-17T04:10:51.358Z,87.80
2017-04-17T04:11:49.778Z,87.90
2017-04-17T04:12:48.170Z,88.60
2017-04-17T04:13:46.632Z,87.90
2017-04-17T04:14:45.052Z,87.80
2017-04-17T04:15:44.210Z,87.90
2017-04-17T04:16:42.628Z,87.80
2017-04-17T04:17:41.039Z,88.20
2017-04-17T04:18:44.313Z,87.70
2017-04-17T04:19:42.738Z,87.70
2017-04-17T04:20:41.117Z,87.50
2017-04-17T04:21:39.924Z,87.50
2017-04-17T04:22:38.349Z,87.30
2017-04-17T04:23:36.792Z,87.50
2017-04-17T04:24:35.187Z,87.80
2017-04-17T04:25:34.396Z,87.80
2017-04-17T04:26:32.783Z,87.80
2017-04-17T04:27:31.183Z,88.00
2017-04-17T04:28:29.636Z,87.70
2017-04-17T04:29:28.043Z,87.60
2017-04-17T04:30:27.214Z,87.60
2017-04-17T04:31:26.406Z,87.80
2017-04-17T04:32:24.817Z,87.50
2017-04-17T04:33:23.190Z,87.30
2017-04-17T04:34:21.613Z,87.50
2017-04-17T04:35:20.022Z,87.50
2017-04-17T04:36:19.170Z,87.60
2017-04-17T04:37:17.641Z,87.60
2017-04-17T04:38:16.035Z,87.30
2017-04-17T04:39:15.178Z,87.30
2017-04-17T04:40:13.623Z,87.50
2017-04-17T04:41:12.040Z,87.20
2017-04-17T04:42:10.471Z,87.00
2017-04-17T04:43:08.983Z,87.00
2017-04-17T04:44:07.393Z,87.10
2017-04-17T04:45:05.821Z,87.00
2017-04-17T04:46:04.273Z,86.80
2017-04-17T04:47:03.461Z,86.60
2017-04-17T04:48:01.872Z,86.40
2017-04-17T04:49:01.063Z,86.60
2017-04-17T04:49:59.492Z,86.60
2017-04-17T04:50:57.879Z,86.40
2017-04-17T04:51:56.269Z,86.00
2017-04-17T04:52:54.647Z,86.10
2017-04-17T04:53:53.049Z,86.30
2017-04-17T04:54:51.490Z,86.40
2017-04-17T04:55:54.923Z,86.70
2017-04-17T04:56:53.333Z,86.60
2017-04-17T04:57:51.758Z,86.40
2017-04-17T04:58:50.327Z,86.20
2017-04-17T04:59:48.727Z,86.30
2017-04-17T05:00:47.947Z,86.70
2017-04-17T05:01:46.353Z,85.80
2017-04-17T05:02:44.769Z,85.90
2017-04-17T05:03:43.951Z,86.00
2017-04-17T05:04:43.124Z,86.10
2017-04-17T05:05:41.547Z,85.70
2017-04-17T05:06:39.974Z,85.50
2017-04-17T05:07:38.381Z,85.80
2017-04-17T05:08:36.792Z,86.10
2017-04-17T05:09:35.188Z,85.90
2017-04-17T05:10:33.606Z,85.80
2017-04-17T05:11:32.125Z,85.80
2017-04-17T05:12:30.879Z,85.50
2017-04-17T05:13:29.289Z,85.70
2017-04-17T05:14:27.700Z,85.50
2017-04-17T05:15:26.179Z,85.40
2017-04-17T05:16:24.615Z,84.90
2017-04-17T05:17:23.029Z,85.20
2017-04-17T05:18:21.542Z,84.90
2017-04-17T05:19:19.957Z,84.90
2017-04-17T05:20:18.399Z,84.80
2017-04-17T05:21:19.005Z,84.70
2017-04-17T05:22:17.407Z,84.70
2017-04-17T05:23:15.844Z,84.20
2017-04-17T05:24:14.297Z,84.90
2017-04-17T05:25:12.711Z,84.40
2017-04-17T05:26:11.105Z,84.30
2017-04-17T05:27:09.502Z,84.10
2017-04-17T05:28:08.920Z,83.50
2017-04-17T05:29:07.347Z,83.10
2017-04-17T05:30:05.783Z,83.00
2017-04-17T05:31:04.238Z,82.70
2017-04-17T05:32:02.661Z,82.60
2017-04-17T05:33:01.096Z,82.80
2017-04-17T05:33:59.508Z,82.40
2017-04-17T05:34:57.919Z,81.80
2017-04-17T05:35:56.431Z,82.10
2017-04-17T05:36:54.871Z,81.80
2017-04-17T05:37:53.290Z,81.90
2017-04-17T05:38:51.694Z,81.40
2017-04-17T05:39:50.139Z,80.80
2017-04-17T05:40:48.597Z,80.70
2017-04-17T05:41:47.000Z,80.80
2017-04-17T05:42:45.434Z,81.20
2017-04-17T05:43:43.824Z,81.00
2017-04-17T05:44:43.013Z,80.60
2017-04-17T05:45:41.446Z,80.70
2017-04-17T05:46:39.913Z,80.80
2017-04-17T05:47:38.328Z,81.20
2017-04-17T05:48:36.721Z,81.00
2017-04-17T05:49:35.132Z,80.80
2017-04-17T05:50:33.587Z,80.90
2017-04-17T05:51:32.327Z,81.10
2017-04-17T05:52:30.762Z,81.30
2017-04-17T05:53:29.181Z,81.00
2017-04-17T05:54:27.595Z,80.80
2017-04-17T05:55:25.993Z,81.30
2017-04-17T05:56:24.402Z,81.50
2017-04-17T05:57:22.838Z,81.70
2017-04-17T05:58:21.294Z,81.50
2017-04-17T05:59:19.715Z,81.50
2017-04-17T06:00:18.124Z,81.10
2017-04-17T06:01:16.559Z,81.10
2017-04-17T06:02:14.991Z,81.10
2017-04-17T06:03:13.398Z,80.60
2017-04-17T06:04:11.907Z,80.90
2017-04-17T06:05:11.072Z,81.20
2017-04-17T06:06:09.471Z,81.30
2017-04-17T06:07:07.871Z,81.30
2017-04-17T06:08:06.280Z,81.30
2017-04-17T06:09:04.869Z,81.50
2017-04-17T06:10:04.095Z,81.20
2017-04-17T06:11:02.494Z,81.20
2017-04-17T06:12:00.999Z,81.40
2017-04-17T06:13:00.147Z,81.10
2017-04-17T06:13:58.619Z,81.40
2017-04-17T06:15:00.841Z,80.80
2017-04-17T06:15:59.278Z,80.60
2017-04-17T06:16:58.461Z,80.90
2017-04-17T06:17:56.881Z,81.20
2017-04-17T06:18:55.334Z,81.20
2017-04-17T06:19:53.764Z,82.10
2017-04-17T06:20:52.235Z,81.70
2017-04-17T06:21:50.778Z,81.80
2017-04-17T06:22:49.200Z,81.90
2017-04-17T06:23:53.274Z,81.90
2017-04-17T06:24:51.703Z,81.50
2017-04-17T06:25:50.470Z,81.80
2017-04-17T06:26:48.990Z,82.00
2017-04-17T06:27:47.403Z,81.40
2017-04-17T06:28:45.863Z,81.90
2017-04-17T06:29:44.378Z,81.60
2017-04-17T06:30:42.814Z,81.60
2017-04-17T06:31:41.263Z,82.10
2017-04-17T06:32:39.755Z,81.80
2017-04-17T06:33:38.279Z,81.70
2017-04-17T06:34:36.752Z,81.70
2017-04-17T06:35:35.234Z,81.40
2017-04-17T06:36:33.658Z,81.20
2017-04-17T06:37:32.085Z,81.80
2017-04-17T06:38:31.555Z,81.50
2017-04-17T06:39:29.966Z,81.20
2017-04-17T06:40:27.646Z,81.20
2017-04-17T06:41:26.147Z,81.30
2017-04-17T06:42:24.516Z,81.30
2017-04-17T06:43:22.925Z,80.90
2017-04-17T06:44:21.491Z,80.80
2017-04-17T06:45:19.921Z,81.10
2017-04-17T06:46:18.384Z,81.00
2017-04-17T06:47:17.608Z,81.20
2017-04-17T06:48:16.031Z,81.10
2017-04-17T06:49:14.434Z,80.80
2017-04-17T06:50:12.920Z,81.10
2017-04-17T06:51:11.365Z,81.70
2017-04-17T06:52:09.789Z,81.60
2017-04-17T06:53:08.262Z,81.40
2017-04-17T06:54:06.673Z,81.40
2017-04-17T06:55:05.117Z,81.10
2017-04-17T06:56:03.615Z,80.90
2017-04-17T06:57:02.043Z,80.90
2017-04-17T06:58:00.461Z,81.50
2017-04-17T06:58:58.982Z,81.60
2017-04-17T06:59:57.501Z,81.70
2017-04-17T07:00:56.129Z,81.60
2017-04-17T07:01:54.530Z,81.70
2017-04-17T07:02:53.020Z,82.00
2017-04-17T07:03:51.452Z,82.60
2017-04-17T07:04:49.972Z,82.80
2017-04-17T07:05:48.393Z,82.40
2017-04-17T07:06:46.871Z,82.30
2017-04-17T07:07:45.307Z,82.90
2017-04-17T07:08:43.741Z,82.70
2017-04-17T07:09:42.179Z,83.10
2017-04-17T07:10:40.627Z,83.40
2017-04-17T07:11:39.047Z,83.20
2017-04-17T07:12:37.571Z,82.70
2017-04-17T07:13:35.996Z,82.80
2017-04-17T07:14:34.471Z,83.20
2017-04-17T07:15:32.912Z,82.90
2017-04-17T07:16:31.391Z,83.20
2017-04-17T07:17:29.865Z,84.00
2017-04-17T07:18:29.046Z,83.90
2017-04-17T07:19:27.512Z,84.80
2017-04-17T07:20:25.972Z,85.00
2017-04-17T07:21:24.432Z,84.60
2017-04-17T07:22:22.874Z,84.70
2017-04-17T07:23:21.283Z,84.80
2017-04-17T07:24:19.773Z,84.70
2017-04-17T07:25:18.233Z,84.90
2017-04-17T07:26:16.677Z,84.70
2017-04-17T07:27:15.195Z,84.30
2017-04-17T07:28:13.690Z,84.70
2017-04-17T07:29:12.950Z,84.60
2017-04-17T07:30:11.437Z,84.80
2017-04-17T07:31:09.891Z,84.80
2017-04-17T07:32:08.424Z,84.80
2017-04-17T07:33:07.258Z,85.10
2017-04-17T07:34:05.667Z,85.00
2017-04-17T07:35:04.117Z,84.80
2017-04-17T07:36:02.546Z,84.20
2017-04-17T07:37:01.001Z,84.30
2017-04-17T07:37:59.460Z,84.50
2017-04-17T07:38:57.896Z,84.40
2017-04-17T07:39:56.330Z,84.80
2017-04-17T07:40:54.757Z,84.90
2017-04-17T07:41:53.165Z,84.70
2017-04-17T07:42:51.615Z,84.40
2017-04-17T07:43:50.049Z,84.50
2017-04-17T07:44:48.507Z,84.70
2017-04-17T07:45:47.743Z,84.90
2017-04-17T07:46:46.168Z,84.20
2017-04-17T07:47:45.393Z,84.20
2017-04-17T07:48:43.884Z,84.70
2017-04-17T07:49:42.292Z,85.40
2017-04-17T07:50:40.965Z,85.40
2017-04-17T07:51:39.367Z,85.10
2017-04-17T07:52:37.802Z,85.20
2017-04-17T07:53:36.239Z,85.20
2017-04-17T07:54:34.826Z,84.70
2017-04-17T07:55:34.402Z,84.60
2017-04-17T07:56:33.660Z,85.50
2017-04-17T07:57:32.749Z,85.30
2017-04-17T07:58:31.198Z,85.60
2017-04-17T07:59:30.390Z,85.60
2017-04-17T08:00:28.812Z,85.40
2017-04-17T08:01:27.334Z,85.30
2017-04-17T08:02:25.795Z,85.50
2017-04-17T08:03:24.241Z,85.30
2017-04-17T08:04:22.701Z,85.40
2017-04-17T08:05:21.175Z,85.60
2017-04-17T08:06:19.632Z,85.30
2017-04-17T08:07:18.101Z,85.70
2017-04-17T08:08:16.500Z,85.80
2017-04-17T08:09:14.948Z,85.90
2017-04-17T08:10:13.374Z,85.30
2017-04-17T08:11:11.803Z,85.20
2017-04-17T08:12:10.248Z,85.00
2017-04-17T08:13:09.014Z,85.40
2017-04-17T08:14:07.429Z,85.20
2017-04-17T08:15:05.905Z,85.50
2017-04-17T08:16:04.376Z,85.40
2017-04-17T08:17:02.859Z,85.20
2017-04-17T08:18:02.051Z,85.30
2017-04-17T08:19:01.247Z,85.90
2017-04-17T08:19:59.680Z,85.20
2017-04-17T08:20:58.150Z,85.10
2017-04-17T08:21:56.555Z,85.30
2017-04-17T08:22:54.951Z,85.20
2017-04-17T08:23:53.387Z,84.90
2017-04-17T08:24:52.595Z,85.30
2017-04-17T08:25:51.061Z,85.50
2017-04-17T08:26:49.592Z,86.20
2017-04-17T08:27:48.063Z,85.80
2017-04-17T08:28:46.502Z,85.30
2017-04-17T08:29:44.972Z,85.50
2017-04-17T08:30:43.572Z,85.10
2017-04-17T08:31:42.035Z,85.50
2017-04-17T08:32:40.941Z,85.80
2017-04-17T08:33:39.386Z,85.90
2017-04-17T08:34:37.843Z,85.80
2017-04-17T08:35:36.318Z,86.10
2017-04-17T08:36:34.784Z,85.90
2017-04-17T08:37:33.240Z,85.70
2017-04-17T08:38:31.663Z,85.90
2017-04-17T08:39:30.852Z,85.70
2017-04-17T08:40:29.619Z,85.40
2017-04-17T08:41:36.836Z,84.90
2017-04-17T08:42:35.407Z,84.70
2017-04-17T08:43:33.865Z,85.00
2017-04-17T08:44:32.483Z,85.20
2017-04-17T08:45:30.947Z,84.80
2017-04-17T08:46:29.388Z,84.70
2017-04-17T08:47:27.852Z,86.00
2017-04-17T08:48:26.358Z,85.30
2017-04-17T08:49:24.784Z,85.30
2017-04-17T08:50:23.234Z,85.30
2017-04-17T08:51:21.712Z,84.50
2017-04-17T08:52:20.232Z,84.50
2017-04-17T08:53:18.755Z,84.80
2017-04-17T08:54:17.222Z,85.50
2017-04-17T08:55:15.704Z,85.10
2017-04-17T08:56:14.896Z,85.40
2017-04-17T08:57:13.336Z,84.90
2017-04-17T08:58:11.758Z,85.20
2017-04-17T08:59:10.208Z,84.60
2017-04-17T09:00:08.715Z,84.30
2017-04-17T09:01:07.168Z,84.30
2017-04-17T09:02:05.648Z,84.80
2017-04-17T09:03:04.103Z,83.30
2017-04-17T09:04:02.529Z,83.80
2017-04-17T09:05:00.981Z,84.40
2017-04-17T09:05:59.474Z,84.20
2017-04-17T09:06:57.891Z,84.40
2017-04-17T09:07:56.719Z,83.80
2017-04-17T09:08:55.875Z,84.10
2017-04-17T09:09:54.334Z,83.40
2017-04-17T09:10:52.755Z,84.10
2017-04-17T09:11:51.186Z,83.90
2017-04-17T09:12:49.632Z,84.20
2017-04-17T09:13:48.421Z,83.60
2017-04-17T09:14:46.828Z,83.90
2017-04-17T09:15:45.271Z,83.10
2017-04-17T09:16:43.686Z,83.40
2017-04-17T09:17:42.116Z,84.00
2017-04-17T09:18:40.597Z,83.70
2017-04-17T09:19:39.790Z,83.60
2017-04-17T09:20:38.219Z,83.50
2017-04-17T09:21:36.939Z,84.40
2017-04-17T09:22:35.467Z,84.40
2017-04-17T09:23:34.517Z,83.90
2017-04-17T09:24:32.976Z,83.20
2017-04-17T09:25:31.526Z,83.60
2017-04-17T09:26:29.953Z,83.80
2017-04-17T09:27:29.202Z,83.60
2017-04-17T09:28:28.451Z,84.10
2017-04-17T09:29:26.991Z,84.50
2017-04-17T09:30:25.551Z,83.80
2017-04-17T09:31:23.996Z,83.90
2017-04-17T09:32:22.417Z,84.10
2017-04-17T09:33:20.944Z,83.60
2017-04-17T09:34:19.418Z,82.80
2017-04-17T09:35:17.931Z,82.80
2017-04-17T09:36:16.465Z,82.30
2017-04-17T09:37:14.931Z,82.00
2017-04-17T09:38:13.730Z,81.80
2017-04-17T09:39:12.206Z,82.10
2017-04-17T09:40:10.696Z,81.50
2017-04-17T09:41:09.860Z,81.40
2017-04-17T09:42:08.389Z,81.30
2017-04-17T09:43:06.891Z,80.80
2017-04-17T09:44:05.553Z,81.40
2017-04-17T09:45:04.006Z,81.40
2017-04-17T09:46:02.567Z,81.20
2017-04-17T09:47:01.076Z,81.00
2017-04-17T09:47:59.546Z,80.80
2017-04-17T09:48:58.023Z,81.20
2017-04-17T09:49:56.556Z,80.60
2017-04-17T09:50:55.014Z,80.70
2017-04-17T09:51:53.619Z,80.50
2017-04-17T09:52:52.094Z,79.90
2017-04-17T09:53:50.567Z,80.30
2017-04-17T09:54:57.531Z,80.70
2017-04-17T09:55:56.050Z,81.10
2017-04-17T09:56:54.525Z,81.00
2017-04-17T09:57:53.037Z,81.10
2017-04-17T09:58:51.472Z,82.20
2017-04-17T09:59:49.923Z,81.10
2017-04-17T10:00:48.421Z,81.80
2017-04-17T10:01:46.891Z,81.40
2017-04-17T10:02:45.318Z,82.50
2017-04-17T10:03:43.832Z,82.70
2017-04-17T10:04:42.406Z,82.70
2017-04-17T10:05:41.335Z,83.20
2017-04-17T10:06:39.784Z,82.60
2017-04-17T10:07:38.198Z,82.10
2017-04-17T10:08:37.067Z,81.00
2017-04-17T10:09:36.258Z,81.30
2017-04-17T10:10:34.667Z,80.50
2017-04-17T10:11:33.187Z,80.30
2017-04-17T10:12:31.656Z,80.80
2017-04-17T10:13:30.085Z,81.10
2017-04-17T10:14:28.501Z,80.60
2017-04-17T10:15:27.241Z,80.90
2017-04-17T10:16:25.667Z,80.40
2017-04-17T10:17:24.055Z,80.00
2017-04-17T10:18:22.514Z,80.40
2017-04-17T10:19:21.313Z,80.30
2017-04-17T10:20:19.736Z,80.80
2017-04-17T10:21:18.493Z,79.70
2017-04-17T10:22:16.895Z,80.80
2017-04-17T10:23:15.304Z,82.20
2017-04-17T10:24:14.448Z,81.00
2017-04-17T10:25:12.901Z,81.50
2017-04-17T10:26:11.304Z,82.70
2017-04-17T10:27:10.599Z,82.10
2017-04-17T10:28:09.040Z,83.20
2017-04-17T10:29:07.471Z,83.00
2017-04-17T10:30:05.869Z,83.50
2017-04-17T10:31:04.335Z,83.80
2017-04-17T10:32:02.796Z,83.10
2017-04-17T10:33:01.285Z,82.20
2017-04-17T10:33:59.711Z,82.00
2017-04-17T10:34:58.139Z,81.90
2017-04-17T10:35:56.666Z,82.10
2017-04-17T10:36:55.165Z,82.30
2017-04-17T10:37:53.667Z,82.90
2017-04-17T10:38:52.842Z,84.10
2017-04-17T10:39:51.402Z,83.10
2017-04-17T10:40:49.838Z,82.20
2017-04-17T10:41:48.224Z,81.40
2017-04-17T10:42:46.723Z,83.40
2017-04-17T10:43:45.886Z,82.80
2017-04-17T10:44:44.382Z,82.90
2017-04-17T10:45:42.792Z,82.40
2017-04-17T10:46:41.284Z,83.80
2017-04-17T10:47:39.822Z,82.70
2017-04-17T10:48:38.235Z,82.30
2017-04-17T10:49:36.690Z,82.50
2017-04-17T10:50:35.298Z,82.40
2017-04-17T10:51:33.760Z,82.00
2017-04-17T10:52:32.218Z,82.20
2017-04-17T10:53:31.270Z,82.90
2017-04-17T10:54:29.677Z,82.50
2017-04-17T10:55:28.918Z,81.90
2017-04-17T10:56:27.444Z,82.70
2017-04-17T10:57:25.894Z,82.30
2017-04-17T10:58:24.323Z,83.60
2017-04-17T10:59:22.828Z,83.30
2017-04-17T11:00:21.311Z,83.80
2017-04-17T11:01:20.564Z,85.20
2017-04-17T11:02:18.960Z,83.40
2017-04-17T11:03:17.442Z,83.60
2017-04-17T11:04:15.882Z,83.30
2017-04-17T11:05:14.307Z,83.20
2017-04-17T11:06:12.710Z,84.30
2017-04-17T11:07:11.234Z,84.50
2017-04-17T11:08:09.644Z,83.50
2017-04-17T11:09:08.108Z,83.70
2017-04-17T11:10:07.606Z,83.00
2017-04-17T11:11:06.040Z,83.60
2017-04-17T11:12:04.500Z,83.30
2017-04-17T11:13:03.270Z,84.00
2017-04-17T11:14:01.671Z,84.00
2017-04-17T11:15:00.133Z,84.70
2017-04-17T11:15:58.848Z,83.10
2017-04-17T11:16:57.304Z,83.70
2017-04-17T11:17:56.481Z,83.20
2017-04-17T11:18:54.859Z,83.60
2017-04-17T11:19:53.626Z,84.00
2017-04-17T11:20:52.348Z,83.70
2017-04-17T11:21:50.762Z,83.50
2017-04-17T11:22:49.172Z,84.40
2017-04-17T11:23:47.757Z,83.50
2017-04-17T11:24:46.324Z,84.10
2017-04-17T11:25:44.866Z,83.50
2017-04-17T11:26:43.361Z,82.90
2017-04-17T11:27:41.782Z,83.20
2017-04-17T11:28:40.280Z,83.50
2017-04-17T11:29:39.608Z,83.00
2017-04-17T11:30:38.084Z,82.50
2017-04-17T11:31:36.539Z,82.80
2017-04-17T11:32:35.563Z,82.00
2017-04-17T11:33:34.030Z,81.70
2017-04-17T11:34:32.806Z,81.10
2017-04-17T11:35:32.306Z,81.10
2017-04-17T11:36:30.768Z,81.10
2017-04-17T11:37:36.264Z,79.40
2017-04-17T11:38:34.820Z,78.80
2017-04-17T11:39:34.233Z,78.70
2017-04-17T11:40:32.704Z,78.30
2017-04-17T11:41:31.142Z,77.20
2017-04-17T11:42:29.689Z,78.20
2017-04-17T11:43:28.264Z,78.40
2017-04-17T11:44:26.877Z,77.10
2017-04-17T11:45:26.162Z,77.30
2017-04-17T11:46:24.600Z,77.40
2017-04-17T11:47:23.019Z,77.90
2017-04-17T11:48:21.484Z,78.50
2017-04-17T11:49:20.024Z,78.20
2017-04-17T11:50:18.486Z,79.10
2017-04-17T11:51:16.892Z,78.90
2017-04-17T11:52:15.334Z,79.20
2017-04-17T11:53:13.780Z,78.30
2017-04-17T11:54:12.278Z,79.70
2017-04-17T11:55:10.752Z,79.70
2017-04-17T11:56:09.241Z,81.00
2017-04-17T11:57:07.703Z,80.60
2017-04-17T11:58:06.849Z,80.00
2017-04-17T11:59:05.353Z,79.80
2017-04-17T12:00:03.914Z,80.60
2017-04-17T12:01:02.462Z,80.60
2017-04-17T12:02:00.921Z,80.50
2017-04-17T12:02:59.390Z,82.00
2017-04-17T12:03:57.896Z,82.30
2017-04-17T12:04:56.329Z,82.80
2017-04-17T12:05:54.803Z,82.90
2017-04-17T12:06:53.542Z,81.40
2017-04-17T12:07:52.032Z,82.50
2017-04-17T12:08:50.465Z,83.20
2017-04-17T12:09:49.057Z,82.10
2017-04-17T12:10:47.619Z,82.40
2017-04-17T12:11:46.009Z,82.90
2017-04-17T12:12:44.519Z,84.10
2017-04-17T12:13:43.061Z,84.50
2017-04-17T12:14:41.554Z,84.40
2017-04-17T12:15:40.038Z,83.90
2017-04-17T12:16:38.538Z,84.30
2017-04-17T12:17:37.248Z,83.80
2017-04-17T12:18:35.707Z,83.80
2017-04-17T12:19:34.175Z,83.70
2017-04-17T12:20:32.674Z,83.00
2017-04-17T12:21:31.078Z,83.80
2017-04-17T12:22:29.482Z,83.80
2017-04-17T12:23:27.918Z,83.50
2017-04-17T12:24:26.773Z,81.90
2017-04-17T12:25:25.269Z,82.00
2017-04-17T12:26:23.692Z,82.00
2017-04-17T12:27:22.329Z,80.90
2017-04-17T12:28:20.733Z,80.40
2017-04-17T12:29:19.156Z,79.40
2017-04-17T12:30:17.586Z,80.70
2017-04-17T12:31:16.121Z,79.50
2017-04-17T12:32:15.307Z,80.30
2017-04-17T12:33:13.761Z,80.30
2017-04-17T12:34:12.174Z,80.00
2017-04-17T12:35:10.691Z,80.00
2017-04-17T12:36:09.174Z,79.70
2017-04-17T12:37:07.733Z,78.70
2017-04-17T12:38:06.166Z,78.30
2017-04-17T12:39:05.483Z,79.70
2017-04-17T12:40:04.049Z,78.70